Time;durP1;ratioP1;P1;durP2;ratioP2;P2;SDS_P1;SDS_P2;PMS_P1;PMS_P2;Temp;Humidity;BMP_temperature;BMP_pressure;BME280_temperature;BME280_humidity;BME280_pressure;Samples;Min_cycle;Max_cycle;Signal;HPM_P1;HPM_P2
2021/09/25 00:03:23;;;;;;;27.35;6.38;;;16.30;99.90;;;;;;4351743;47;20767;-75
2021/09/25 00:07:26;;;;;;;28.65;6.03;;;16.40;99.90;;;;;;4351798;54;20034;-76
2021/09/25 00:11:29;;;;;;;;;;;16.40;99.90;;;;;;4351972;54;20766;-76
2021/09/25 00:15:31;;;;;;;23.05;5.10;;;17.40;99.90;;;;;;4352142;54;19927;-75
2021/09/25 00:19:35;;;;;;;26.15;6.13;;;16.40;99.90;;;;;;4353466;54;20026;-76
2021/09/25 00:23:37;;;;;;;24.00;5.68;;;16.40;99.90;;;;;;4353622;54;20019;-76
2021/09/25 00:27:39;;;;;;;;;;;16.40;99.90;;;;;;4353505;54;20034;-77
2021/09/25 00:31:41;;;;;;;40.28;7.07;;;16.90;99.90;;;;;;4353475;46;20002;-76
2021/09/25 00:35:43;;;;;;;29.85;6.43;;;16.60;99.90;;;;;;4352752;47;20030;-77
2021/09/25 00:39:45;;;;;;;;;;;16.50;99.90;;;;;;4353546;47;20026;-76
2021/09/25 00:43:47;;;;;;;29.83;7.38;;;16.50;99.90;;;;;;4353483;54;19950;-76
2021/09/25 00:47:50;;;;;;;24.50;6.43;;;16.40;99.90;;;;;;4354950;39;20757;-77
2021/09/25 00:51:52;;;;;;;33.30;6.60;;;17.40;99.90;;;;;;4353068;47;20049;-76
2021/09/25 00:55:54;;;;;;;27.10;6.32;;;16.50;99.90;;;;;;4352941;54;20034;-77
2021/09/25 00:59:57;;;;;;;30.52;7.47;;;16.50;99.90;;;;;;4352985;54;20058;-77
2021/09/25 01:04:01;;;;;;;26.15;6.45;;;16.50;99.90;;;;;;4352998;54;20046;-77
2021/09/25 01:08:04;;;;;;;29.52;7.18;;;16.30;99.90;;;;;;4353054;54;20027;-78
2021/09/25 01:12:06;;;;;;;;;;;16.50;99.90;;;;;;4353215;54;20015;-76
2021/09/25 01:16:08;;;;;;;;;;;16.50;99.90;;;;;;4353080;54;19943;-76
2021/09/25 01:20:11;;;;;;;33.40;6.57;;;16.50;99.90;;;;;;4353011;47;19954;-77
2021/09/25 01:24:13;;;;;;;28.92;7.72;;;16.50;99.90;;;;;;4352931;54;20034;-78
2021/09/25 01:28:15;;;;;;;30.30;6.93;;;15.40;99.90;;;;;;4354674;39;20693;-77
2021/09/25 01:32:19;;;;;;;31.50;5.75;;;17.20;99.90;;;;;;4352319;54;20034;-76
2021/09/25 01:36:20;;;;;;;24.20;6.60;;;16.50;99.90;;;;;;4352510;54;20022;-78
2021/09/25 01:40:23;;;;;;;23.90;6.38;;;16.80;99.90;;;;;;4353410;46;20054;-78
2021/09/25 01:44:26;;;;;;;26.33;5.82;;;15.90;99.90;;;;;;4353270;54;20027;-77
2021/09/25 01:48:28;;;;;;;22.60;5.60;;;16.60;99.90;;;;;;4353380;46;20038;-76
2021/09/25 01:52:30;;;;;;;29.30;6.18;;;16.40;99.90;;;;;;4352743;54;20860;-76
2021/09/25 01:56:32;;;;;;;;;;;16.40;99.90;;;;;;4352986;47;20027;-76
2021/09/25 02:00:36;;;;;;;27.65;5.50;;;16.40;99.90;;;;;;4352794;54;19950;-76
2021/09/25 02:04:45;;;;;;;28.63;5.90;;;16.40;99.90;;;;;;4352772;46;20031;-76
2021/09/25 02:08:47;;;;;;;26.92;5.68;;;16.40;99.90;;;;;;4353073;46;20030;-76
2021/09/25 02:12:49;;;;;;;26.15;6.43;;;16.30;99.90;;;;;;4352762;54;20035;-75
2021/09/25 02:16:51;;;;;;;;;;;17.10;99.90;;;;;;4353036;46;20090;-76
2021/09/25 02:20:55;;;;;;;20.52;6.00;;;16.30;99.90;;;;;;4352418;47;19938;-75
2021/09/25 02:24:57;;;;;;;19.45;4.50;;;17.50;99.90;;;;;;4352487;54;20037;-77
2021/09/25 02:28:59;;;;;;;;;;;17.50;99.90;;;;;;4352755;46;20053;-76
2021/09/25 02:33:01;;;;;;;16.42;3.92;;;16.30;99.90;;;;;;4352783;54;19955;-77
2021/09/25 02:37:04;;;;;;;19.27;5.20;;;16.20;99.90;;;;;;4351771;47;20999;-76
2021/09/25 02:41:06;;;;;;;25.08;4.90;;;17.10;99.90;;;;;;4352278;54;20045;-76
2021/09/25 02:45:08;;;;;;;;;;;17.10;99.90;;;;;;4355914;39;20721;-75
2021/09/25 02:49:10;;;;;;;22.55;4.53;;;16.30;99.90;;;;;;4352248;47;19939;-76
2021/09/25 02:53:12;;;;;;;18.40;4.65;;;16.20;99.90;;;;;;4352391;54;20037;-76
2021/09/25 02:57:14;;;;;;;27.45;5.80;;;17.70;99.90;;;;;;4352368;47;20974;-75
2021/09/25 03:01:16;;;;;;;;;;;16.60;99.90;;;;;;4352482;54;20027;-75
2021/09/25 03:05:19;;;;;;;23.02;6.03;;;16.30;99.90;;;;;;4352381;54;19954;-78
2021/09/25 03:09:22;;;;;;;22.15;5.25;;;16.50;99.90;;;;;;4352444;54;20041;-77
2021/09/25 03:13:24;;;;;;;20.83;5.30;;;16.10;99.90;;;;;;4353751;39;21213;-76
2021/09/25 03:17:26;;;;;;;25.90;5.22;;;16.30;99.90;;;;;;4365148;39;20710;-75
2021/09/25 03:21:28;;;;;;;;;;;17.30;99.90;;;;;;4352243;47;20825;-76
2021/09/25 03:25:30;;;;;;;24.73;4.93;;;16.20;99.90;;;;;;4352100;47;19929;-77
2021/09/25 03:29:33;;;;;;;19.13;4.28;;;16.30;99.90;;;;;;4352306;47;20034;-77
2021/09/25 03:33:35;;;;;;;16.65;4.75;;;16.70;99.90;;;;;;4352017;47;20010;-75
2021/09/25 03:37:37;;;;;;;19.38;4.63;;;17.30;99.90;;;;;;4351637;54;20036;-76
2021/09/25 03:41:39;;;;;;;;;;;17.50;99.90;;;;;;4352382;54;20051;-76
2021/09/25 03:45:41;;;;;;;18.00;4.53;;;16.20;99.90;;;;;;4352957;39;20808;-75
2021/09/25 03:49:43;;;;;;;;;;;16.20;99.90;;;;;;4352406;47;20045;-77
2021/09/25 03:53:45;;;;;;;18.60;4.32;;;16.20;99.90;;;;;;4353637;54;19934;-75
2021/09/25 03:57:47;;;;;;;;;;;16.20;99.90;;;;;;4353732;46;21277;-75
2021/09/25 04:01:49;;;;;;;23.88;3.88;;;16.20;99.90;;;;;;4353782;46;19939;-76
2021/09/25 04:05:52;;;;;;;18.65;4.80;;;15.50;99.90;;;;;;4353249;46;20022;-75
2021/09/25 04:09:54;;;;;;;18.63;3.83;;;16.00;99.90;;;;;;4353362;46;20018;-78
2021/09/25 04:13:56;;;;;;;;;;;16.20;99.90;;;;;;4353388;54;20117;-76
2021/09/25 04:17:58;;;;;;;17.45;3.45;;;16.10;99.90;;;;;;4353273;47;19963;-75
2021/09/25 04:22:00;;;;;;;;;;;16.40;99.90;;;;;;4353873;46;20037;-76
2021/09/25 04:26:02;;;;;;;19.90;4.03;;;17.60;99.90;;;;;;4353199;51;19945;-76
2021/09/25 04:30:05;;;;;;;22.13;4.05;;;16.10;99.90;;;;;;4353253;54;20034;-76
2021/09/25 04:34:07;;;;;;;18.75;3.85;;;16.20;99.90;;;;;;4353299;54;20034;-77
2021/09/25 04:38:09;;;;;;;;;;;16.20;99.90;;;;;;4353153;46;20014;-76
2021/09/25 04:42:11;;;;;;;13.65;3.45;;;16.20;99.90;;;;;;4353251;54;19950;-75
2021/09/25 04:46:13;;;;;;;;;;;16.90;99.90;;;;;;4353341;47;20087;-75
2021/09/25 04:50:15;;;;;;;15.25;3.45;;;16.10;99.90;;;;;;4353084;54;19954;-76
2021/09/25 04:54:17;;;;;;;21.25;4.45;;;16.10;99.90;;;;;;4353224;54;20118;-76
2021/09/25 04:58:23;;;;;;;12.20;3.58;;;16.20;99.90;;;;;;4353301;54;20038;-76
2021/09/25 05:02:25;;;;;;;21.77;3.70;;;15.60;99.90;;;;;;4353170;54;20041;-79
2021/09/25 05:06:28;;;;;;;19.60;3.85;;;17.40;99.90;;;;;;4353045;46;20858;-75
2021/09/25 05:10:30;;;;;;;16.45;3.50;;;16.80;99.90;;;;;;4353194;46;20031;-76
2021/09/25 05:14:35;;;;;;;;;;;15.70;99.90;;;;;;4353270;47;20018;-76
2021/09/25 05:18:37;;;;;;;14.20;3.13;;;16.00;99.90;;;;;;4353180;54;20713;-75
2021/09/25 05:22:39;;;;;;;22.00;3.38;;;16.00;99.90;;;;;;4353056;54;20034;-75
2021/09/25 05:26:42;;;;;;;20.55;4.10;;;16.00;99.90;;;;;;4352943;54;20026;-75
2021/09/25 05:30:44;;;;;;;16.60;3.47;;;16.70;99.90;;;;;;4352965;54;20010;-75
2021/09/25 05:34:46;;;;;;;13.18;3.67;;;16.70;99.90;;;;;;4352491;54;20026;-75
2021/09/25 05:38:48;;;;;;;16.60;3.38;;;15.50;99.90;;;;;;4353583;46;20015;-76
2021/09/25 05:42:50;;;;;;;17.20;3.83;;;15.40;99.90;;;;;;4353034;46;20022;-78
2021/09/25 05:46:52;;;;;;;14.38;3.42;;;15.40;99.90;;;;;;4352741;54;20037;-78
2021/09/25 05:50:54;;;;;;;16.15;3.70;;;15.90;99.90;;;;;;4353800;39;20793;-77
2021/09/25 05:54:56;;;;;;;;;;;16.70;99.90;;;;;;4353120;54;20878;-76
2021/09/25 05:59:01;;;;;;;21.05;3.42;;;15.90;99.90;;;;;;4358469;39;20637;-76
2021/09/25 06:03:03;;;;;;;15.00;3.92;;;16.00;99.90;;;;;;4352651;54;20031;-76
2021/09/25 06:07:09;;;;;;;18.23;3.95;;;16.00;99.90;;;;;;4360266;39;20857;-76
2021/09/25 06:11:11;;;;;;;22.48;3.63;;;15.80;99.90;;;;;;4352048;54;20019;-77
2021/09/25 06:15:13;;;;;;;;;;;15.90;99.90;;;;;;4352280;46;20026;-76
2021/09/25 06:19:15;;;;;;;20.38;3.45;;;15.20;99.90;;;;;;4351868;54;19949;-75
2021/09/25 06:23:17;;;;;;;17.95;4.13;;;15.70;99.90;;;;;;4352171;47;20015;-76
2021/09/25 06:27:20;;;;;;;15.80;4.13;;;15.80;99.90;;;;;;4351711;47;20034;-77
2021/09/25 06:31:22;;;;;;;;;;;15.90;99.90;;;;;;4352126;46;20042;-79
2021/09/25 06:35:25;;;;;;;17.83;3.53;;;17.50;99.90;;;;;;4351379;54;19944;-76
2021/09/25 06:39:27;;;;;;;19.98;3.08;;;17.80;99.90;;;;;;4352183;47;20018;-76
2021/09/25 06:43:29;;;;;;;23.55;3.30;;;15.90;99.90;;;;;;4357479;39;21032;-75
2021/09/25 06:47:31;;;;;;;13.60;2.88;;;15.90;99.90;;;;;;4351710;54;20030;-76
2021/09/25 06:51:33;;;;;;;17.52;3.80;;;16.00;99.90;;;;;;4352214;46;20018;-76
2021/09/25 06:55:35;;;;;;;15.27;3.30;;;15.90;99.90;;;;;;4352533;46;20065;-75
2021/09/25 06:59:40;;;;;;;13.88;3.13;;;16.10;99.90;;;;;;4352100;47;20061;-77
2021/09/25 07:03:42;;;;;;;14.50;3.10;;;16.00;99.90;;;;;;4351289;54;20090;-77
2021/09/25 07:07:45;;;;;;;14.60;3.00;;;16.90;99.90;;;;;;4352336;47;20037;-76
2021/09/25 07:11:47;;;;;;;18.50;3.83;;;16.10;99.90;;;;;;4346448;54;20025;-78
2021/09/25 07:15:50;;;;;;;11.45;3.00;;;16.00;99.90;;;;;;4351199;54;20038;-76
2021/09/25 07:19:52;;;;;;;16.25;2.92;;;17.00;99.90;;;;;;4351914;54;20014;-75
2021/09/25 07:23:54;;;;;;;13.52;3.13;;;16.20;99.90;;;;;;4351194;47;20055;-77
2021/09/25 07:27:56;;;;;;;;;;;16.20;99.90;;;;;;4352900;47;20034;-76
2021/09/25 07:31:58;;;;;;;17.40;3.38;;;16.20;99.90;;;;;;4352465;47;19953;-76
2021/09/25 07:36:00;;;;;;;16.55;3.25;;;17.70;99.90;;;;;;4353161;46;21348;-75
2021/09/25 07:40:04;;;;;;;;;;;17.60;99.90;;;;;;4353412;47;20026;-76
2021/09/25 07:44:12;;;;;;;12.63;2.75;;;16.40;99.90;;;;;;4352863;47;19945;-78
2021/09/25 07:48:14;;;;;;;18.40;3.55;;;16.40;99.90;;;;;;4352922;51;20026;-76
2021/09/25 07:52:17;;;;;;;14.00;2.78;;;16.50;99.90;;;;;;4352629;46;20037;-75
2021/09/25 07:56:19;;;;;;;15.13;3.13;;;16.50;99.90;;;;;;4353198;46;20809;-76
2021/09/25 08:00:22;;;;;;;;;;;16.60;99.90;;;;;;4353837;54;21281;-75
2021/09/25 08:04:24;;;;;;;16.88;2.75;;;16.50;99.90;;;;;;4353055;47;19966;-77
2021/09/25 08:08:26;;;;;;;12.88;2.78;;;15.50;99.90;;;;;;4352804;54;20056;-75
2021/09/25 08:12:28;;;;;;;;;;;16.50;99.90;;;;;;4353772;46;20030;-75
2021/09/25 08:16:30;;;;;;;16.50;2.58;;;16.70;99.90;;;;;;4353122;54;19949;-77
2021/09/25 08:20:32;;;;;;;18.42;3.40;;;16.60;99.90;;;;;;4352574;47;20015;-76
2021/09/25 08:24:35;;;;;;;11.10;2.88;;;16.70;99.90;;;;;;4352449;54;20130;-76
2021/09/25 08:28:37;;;;;;;14.98;2.67;;;16.90;99.90;;;;;;4352767;46;20030;-76
2021/09/25 08:32:39;;;;;;;14.32;2.83;;;16.80;99.90;;;;;;4353035;39;20414;-77
2021/09/25 08:36:41;;;;;;;15.93;4.30;;;16.90;99.90;;;;;;4352479;54;20059;-75
2021/09/25 08:40:43;;;;;;;;;;;18.00;99.90;;;;;;4352467;47;20034;-78
2021/09/25 08:44:51;;;;;;;13.93;2.83;;;17.00;99.90;;;;;;4352548;54;19942;-76
2021/09/25 08:48:54;;;;;;;12.35;2.00;;;17.10;99.90;;;;;;4353347;39;20812;-75
2021/09/25 08:52:57;;;;;;;9.18;2.17;;;17.30;99.90;;;;;;4352568;46;20034;-78
2021/09/25 08:57:02;;;;;;;10.75;2.03;;;18.30;99.90;;;;;;4352314;46;20026;-76
2021/09/25 09:01:05;;;;;;;16.33;3.08;;;17.20;99.90;;;;;;4352276;46;20035;-78
2021/09/25 09:05:07;;;;;;;10.25;2.58;;;17.30;99.90;;;;;;4350757;54;20023;-75
2021/09/25 09:09:10;;;;;;;9.75;3.42;;;17.40;99.90;;;;;;4351773;47;20797;-77
2021/09/25 09:13:12;;;;;;;13.50;2.30;;;17.50;99.90;;;;;;4351450;54;20056;-80
2021/09/25 09:17:23;;;;;;;;;;;18.40;99.90;;;;;;4354085;47;20031;-81
2021/09/25 09:21:28;;;;;;;9.52;2.25;;;17.60;99.90;;;;;;4363075;39;20520;-81
2021/09/25 09:25:31;;;;;;;10.73;2.30;;;17.60;99.90;;;;;;4355861;39;20642;-82
2021/09/25 09:29:34;;;;;;;6.90;1.80;;;17.70;99.90;;;;;;4358595;39;21051;-81
2021/09/25 09:33:44;;;;;;;9.60;1.90;;;17.80;99.90;;;;;;4354520;46;20034;-82
2021/09/25 09:37:58;;;;;;;12.02;2.25;;;18.20;99.90;;;;;;4353973;54;21387;-82
2021/09/25 09:42:01;;;;;;;7.68;2.17;;;18.00;99.90;;;;;;4354033;47;20039;-82
2021/09/25 09:46:04;;;;;;;14.50;2.17;;;18.10;99.90;;;;;;4353953;54;20018;-80
2021/09/25 09:50:08;;;;;;;12.25;2.40;;;18.10;99.90;;;;;;4353985;46;20711;-81
2021/09/25 09:54:15;;;;;;;11.00;2.13;;;18.20;99.90;;;;;;4354213;46;20759;-82
2021/09/25 09:58:17;;;;;;;7.22;1.90;;;18.20;99.90;;;;;;4353991;54;20055;-81
2021/09/25 10:02:27;;;;;;;10.18;2.00;;;18.30;99.90;;;;;;4358980;39;20501;-82
